sensor_id;sensor_type;location;lat;lon;timestamp;P1;durP1;ratioP1;P2;durP2;ratioP2
58581;SDS011;44361;51.476;5.700;2024-03-06T00:00:34;55.20;;;27.20;;
58581;SDS011;44361;51.476;5.700;2024-03-06T00:03:00;51.17;;;26.00;;
58581;SDS011;44361;51.476;5.700;2024-03-06T00:05:25;57.60;;;26.90;;
58581;SDS011;44361;51.476;5.700;2024-03-06T00:07:51;53.78;;;25.42;;
58581;SDS011;44361;51.476;5.700;2024-03-06T00:10:16;56.22;;;27.23;;
58581;SDS011;44361;51.476;5.700;2024-03-06T00:12:42;51.28;;;26.30;;
58581;SDS011;44361;51.476;5.700;2024-03-06T00:15:08;53.58;;;25.67;;
58581;SDS011;44361;51.476;5.700;2024-03-06T00:17:33;54.70;;;26.52;;
58581;SDS011;44361;51.476;5.700;2024-03-06T00:19:59;51.13;;;25.13;;
58581;SDS011;44361;51.476;5.700;2024-03-06T00:22:24;53.22;;;26.55;;
58581;SDS011;44361;51.476;5.700;2024-03-06T00:24:50;57.13;;;25.63;;
58581;SDS011;44361;51.476;5.700;2024-03-06T00:27:16;54.63;;;24.92;;
58581;SDS011;44361;51.476;5.700;2024-03-06T00:29:42;52.95;;;26.65;;
58581;SDS011;44361;51.476;5.700;2024-03-06T00:32:07;59.05;;;28.05;;
58581;SDS011;44361;51.476;5.700;2024-03-06T00:34:33;51.65;;;25.75;;
58581;SDS011;44361;51.476;5.700;2024-03-06T00:36:59;56.08;;;25.48;;
58581;SDS011;44361;51.476;5.700;2024-03-06T00:39:24;49.63;;;25.30;;
58581;SDS011;44361;51.476;5.700;2024-03-06T00:41:50;56.00;;;26.98;;
58581;SDS011;44361;51.476;5.700;2024-03-06T00:44:15;57.35;;;28.45;;
58581;SDS011;44361;51.476;5.700;2024-03-06T00:46:42;56.78;;;27.27;;
58581;SDS011;44361;51.476;5.700;2024-03-06T00:49:08;64.70;;;28.30;;
58581;SDS011;44361;51.476;5.700;2024-03-06T00:51:33;57.85;;;28.00;;
58581;SDS011;44361;51.476;5.700;2024-03-06T00:54:01;49.30;;;26.15;;
58581;SDS011;44361;51.476;5.700;2024-03-06T00:56:28;56.15;;;26.63;;
58581;SDS011;44361;51.476;5.700;2024-03-06T00:58:53;54.95;;;26.42;;
58581;SDS011;44361;51.476;5.700;2024-03-06T01:01:19;59.30;;;27.27;;
58581;SDS011;44361;51.476;5.700;2024-03-06T01:03:44;61.17;;;27.75;;
58581;SDS011;44361;51.476;5.700;2024-03-06T01:06:10;51.08;;;26.30;;
58581;SDS011;44361;51.476;5.700;2024-03-06T01:08:35;54.90;;;25.55;;
58581;SDS011;44361;51.476;5.700;2024-03-06T01:11:01;52.42;;;25.63;;
58581;SDS011;44361;51.476;5.700;2024-03-06T01:13:29;57.88;;;26.80;;
58581;SDS011;44361;51.476;5.700;2024-03-06T01:15:55;57.63;;;27.27;;
58581;SDS011;44361;51.476;5.700;2024-03-06T01:18:20;53.42;;;26.63;;
58581;SDS011;44361;51.476;5.700;2024-03-06T01:20:46;62.83;;;28.80;;
58581;SDS011;44361;51.476;5.700;2024-03-06T01:23:11;62.83;;;28.33;;
58581;SDS011;44361;51.476;5.700;2024-03-06T01:25:37;61.85;;;28.48;;
58581;SDS011;44361;51.476;5.700;2024-03-06T01:28:02;63.55;;;28.92;;
58581;SDS011;44361;51.476;5.700;2024-03-06T01:30:28;58.65;;;29.23;;
58581;SDS011;44361;51.476;5.700;2024-03-06T01:32:54;61.45;;;27.42;;
58581;SDS011;44361;51.476;5.700;2024-03-06T01:35:19;66.22;;;28.65;;
58581;SDS011;44361;51.476;5.700;2024-03-06T01:37:45;57.35;;;27.20;;
58581;SDS011;44361;51.476;5.700;2024-03-06T01:40:11;55.80;;;27.20;;
58581;SDS011;44361;51.476;5.700;2024-03-06T01:42:37;66.93;;;28.70;;
58581;SDS011;44361;51.476;5.700;2024-03-06T01:45:03;66.35;;;28.80;;
58581;SDS011;44361;51.476;5.700;2024-03-06T01:47:29;68.82;;;29.13;;
58581;SDS011;44361;51.476;5.700;2024-03-06T01:49:54;70.68;;;30.15;;
58581;SDS011;44361;51.476;5.700;2024-03-06T01:52:20;76.53;;;33.50;;
58581;SDS011;44361;51.476;5.700;2024-03-06T01:54:47;67.20;;;31.52;;
58581;SDS011;44361;51.476;5.700;2024-03-06T01:57:13;77.47;;;32.08;;
58581;SDS011;44361;51.476;5.700;2024-03-06T01:59:42;72.28;;;31.77;;
58581;SDS011;44361;51.476;5.700;2024-03-06T02:02:08;70.30;;;30.52;;
58581;SDS011;44361;51.476;5.700;2024-03-06T02:04:36;64.40;;;32.55;;
58581;SDS011;44361;51.476;5.700;2024-03-06T02:07:02;69.72;;;31.15;;
58581;SDS011;44361;51.476;5.700;2024-03-06T02:09:28;69.82;;;31.88;;
58581;SDS011;44361;51.476;5.700;2024-03-06T02:11:53;73.85;;;31.95;;
58581;SDS011;44361;51.476;5.700;2024-03-06T02:14:19;77.10;;;32.33;;
58581;SDS011;44361;51.476;5.700;2024-03-06T02:16:45;69.72;;;31.38;;
58581;SDS011;44361;51.476;5.700;2024-03-06T02:19:10;69.93;;;32.05;;
58581;SDS011;44361;51.476;5.700;2024-03-06T02:21:36;74.65;;;32.33;;
58581;SDS011;44361;51.476;5.700;2024-03-06T02:24:01;69.80;;;30.90;;
58581;SDS011;44361;51.476;5.700;2024-03-06T02:26:27;72.85;;;32.17;;
58581;SDS011;44361;51.476;5.700;2024-03-06T02:28:53;73.88;;;33.20;;
58581;SDS011;44361;51.476;5.700;2024-03-06T02:31:20;71.50;;;31.48;;
58581;SDS011;44361;51.476;5.700;2024-03-06T02:33:46;72.80;;;30.95;;
58581;SDS011;44361;51.476;5.700;2024-03-06T02:36:19;75.50;;;32.33;;
58581;SDS011;44361;51.476;5.700;2024-03-06T02:38:45;67.93;;;31.00;;
58581;SDS011;44361;51.476;5.700;2024-03-06T02:41:11;79.28;;;33.13;;
58581;SDS011;44361;51.476;5.700;2024-03-06T02:43:36;76.20;;;32.47;;
58581;SDS011;44361;51.476;5.700;2024-03-06T02:46:02;67.00;;;30.73;;
58581;SDS011;44361;51.476;5.700;2024-03-06T02:48:29;67.45;;;31.35;;
58581;SDS011;44361;51.476;5.700;2024-03-06T02:50:55;70.10;;;30.52;;
58581;SDS011;44361;51.476;5.700;2024-03-06T02:53:21;72.97;;;31.75;;
58581;SDS011;44361;51.476;5.700;2024-03-06T02:55:47;70.75;;;30.33;;
58581;SDS011;44361;51.476;5.700;2024-03-06T02:58:12;77.20;;;30.65;;
58581;SDS011;44361;51.476;5.700;2024-03-06T03:00:41;77.85;;;33.35;;
58581;SDS011;44361;51.476;5.700;2024-03-06T03:03:07;67.85;;;30.25;;
58581;SDS011;44361;51.476;5.700;2024-03-06T03:05:33;69.22;;;29.67;;
58581;SDS011;44361;51.476;5.700;2024-03-06T03:07:59;69.70;;;29.58;;
58581;SDS011;44361;51.476;5.700;2024-03-06T03:10:24;72.22;;;32.17;;
58581;SDS011;44361;51.476;5.700;2024-03-06T03:12:51;71.72;;;29.63;;
58581;SDS011;44361;51.476;5.700;2024-03-06T03:15:16;71.43;;;30.75;;
58581;SDS011;44361;51.476;5.700;2024-03-06T03:17:42;70.38;;;30.15;;
58581;SDS011;44361;51.476;5.700;2024-03-06T03:20:08;66.28;;;29.50;;
58581;SDS011;44361;51.476;5.700;2024-03-06T03:22:37;67.13;;;28.67;;
58581;SDS011;44361;51.476;5.700;2024-03-06T03:25:03;77.47;;;30.63;;
58581;SDS011;44361;51.476;5.700;2024-03-06T03:27:32;82.32;;;30.45;;
58581;SDS011;44361;51.476;5.700;2024-03-06T03:29:58;92.22;;;34.78;;
58581;SDS011;44361;51.476;5.700;2024-03-06T03:32:23;124.95;;;34.10;;
58581;SDS011;44361;51.476;5.700;2024-03-06T03:34:49;99.65;;;33.83;;
58581;SDS011;44361;51.476;5.700;2024-03-06T03:37:15;222.77;;;39.78;;
58581;SDS011;44361;51.476;5.700;2024-03-06T03:39:40;99.57;;;33.90;;
58581;SDS011;44361;51.476;5.700;2024-03-06T03:42:07;72.75;;;31.25;;
58581;SDS011;44361;51.476;5.700;2024-03-06T03:44:33;91.78;;;33.22;;
58581;SDS011;44361;51.476;5.700;2024-03-06T03:46:58;64.32;;;30.15;;
58581;SDS011;44361;51.476;5.700;2024-03-06T03:49:24;68.28;;;30.58;;
58581;SDS011;44361;51.476;5.700;2024-03-06T03:51:49;73.72;;;29.77;;
58581;SDS011;44361;51.476;5.700;2024-03-06T03:54:15;74.60;;;31.48;;
58581;SDS011;44361;51.476;5.700;2024-03-06T03:56:40;78.45;;;31.15;;
58581;SDS011;44361;51.476;5.700;2024-03-06T03:59:06;71.15;;;29.58;;
58581;SDS011;44361;51.476;5.700;2024-03-06T04:01:32;68.15;;;30.58;;
58581;SDS011;44361;51.476;5.700;2024-03-06T04:03:57;73.38;;;29.58;;
58581;SDS011;44361;51.476;5.700;2024-03-06T04:06:23;65.32;;;30.00;;
58581;SDS011;44361;51.476;5.700;2024-03-06T04:08:49;66.45;;;30.02;;
58581;SDS011;44361;51.476;5.700;2024-03-06T04:11:14;67.88;;;28.75;;
58581;SDS011;44361;51.476;5.700;2024-03-06T04:13:40;69.03;;;29.90;;
58581;SDS011;44361;51.476;5.700;2024-03-06T04:16:05;61.22;;;27.25;;
58581;SDS011;44361;51.476;5.700;2024-03-06T04:18:31;63.53;;;29.45;;
58581;SDS011;44361;51.476;5.700;2024-03-06T04:21:04;63.47;;;28.75;;
58581;SDS011;44361;51.476;5.700;2024-03-06T04:23:30;61.30;;;28.77;;
58581;SDS011;44361;51.476;5.700;2024-03-06T04:25:56;65.72;;;28.98;;
58581;SDS011;44361;51.476;5.700;2024-03-06T04:28:21;65.28;;;29.58;;
58581;SDS011;44361;51.476;5.700;2024-03-06T04:30:47;69.47;;;29.30;;
58581;SDS011;44361;51.476;5.700;2024-03-06T04:33:12;93.63;;;30.92;;
58581;SDS011;44361;51.476;5.700;2024-03-06T04:35:40;79.07;;;31.77;;
58581;SDS011;44361;51.476;5.700;2024-03-06T04:38:06;74.68;;;30.58;;
58581;SDS011;44361;51.476;5.700;2024-03-06T04:40:31;76.13;;;31.40;;
58581;SDS011;44361;51.476;5.700;2024-03-06T04:42:58;70.15;;;29.20;;
58581;SDS011;44361;51.476;5.700;2024-03-06T04:45:23;72.78;;;29.52;;
58581;SDS011;44361;51.476;5.700;2024-03-06T04:47:49;72.90;;;30.25;;
58581;SDS011;44361;51.476;5.700;2024-03-06T04:50:14;76.40;;;29.25;;
58581;SDS011;44361;51.476;5.700;2024-03-06T04:52:40;83.68;;;29.75;;
58581;SDS011;44361;51.476;5.700;2024-03-06T04:55:07;78.20;;;28.70;;
58581;SDS011;44361;51.476;5.700;2024-03-06T04:57:35;83.65;;;30.90;;
58581;SDS011;44361;51.476;5.700;2024-03-06T05:00:01;87.38;;;31.08;;
58581;SDS011;44361;51.476;5.700;2024-03-06T05:02:30;80.63;;;28.95;;
58581;SDS011;44361;51.476;5.700;2024-03-06T05:05:00;71.70;;;29.40;;
58581;SDS011;44361;51.476;5.700;2024-03-06T05:07:27;148.70;;;34.25;;
58581;SDS011;44361;51.476;5.700;2024-03-06T05:09:53;77.50;;;29.70;;
58581;SDS011;44361;51.476;5.700;2024-03-06T05:12:19;77.72;;;29.92;;
58581;SDS011;44361;51.476;5.700;2024-03-06T05:14:44;96.07;;;31.35;;
58581;SDS011;44361;51.476;5.700;2024-03-06T05:17:10;96.03;;;31.73;;
58581;SDS011;44361;51.476;5.700;2024-03-06T05:19:35;84.43;;;31.98;;
58581;SDS011;44361;51.476;5.700;2024-03-06T05:22:02;81.07;;;31.40;;
58581;SDS011;44361;51.476;5.700;2024-03-06T05:24:30;92.32;;;31.40;;
58581;SDS011;44361;51.476;5.700;2024-03-06T05:26:56;109.32;;;33.95;;
58581;SDS011;44361;51.476;5.700;2024-03-06T05:29:21;77.22;;;29.52;;
58581;SDS011;44361;51.476;5.700;2024-03-06T05:31:47;86.43;;;30.08;;
58581;SDS011;44361;51.476;5.700;2024-03-06T05:34:12;87.35;;;29.38;;
58581;SDS011;44361;51.476;5.700;2024-03-06T05:36:38;79.47;;;29.98;;
58581;SDS011;44361;51.476;5.700;2024-03-06T05:39:04;75.57;;;29.33;;
58581;SDS011;44361;51.476;5.700;2024-03-06T05:41:32;91.10;;;29.15;;
58581;SDS011;44361;51.476;5.700;2024-03-06T05:43:58;84.47;;;28.67;;
58581;SDS011;44361;51.476;5.700;2024-03-06T05:46:23;67.90;;;27.20;;
58581;SDS011;44361;51.476;5.700;2024-03-06T05:48:50;62.47;;;26.92;;
58581;SDS011;44361;51.476;5.700;2024-03-06T05:51:16;74.65;;;28.38;;
58581;SDS011;44361;51.476;5.700;2024-03-06T05:53:43;63.97;;;28.33;;
58581;SDS011;44361;51.476;5.700;2024-03-06T05:56:09;56.42;;;26.13;;
58581;SDS011;44361;51.476;5.700;2024-03-06T05:58:35;56.55;;;26.08;;
58581;SDS011;44361;51.476;5.700;2024-03-06T06:01:01;54.70;;;26.63;;
58581;SDS011;44361;51.476;5.700;2024-03-06T06:03:28;52.83;;;26.05;;
58581;SDS011;44361;51.476;5.700;2024-03-06T06:05:54;59.05;;;25.90;;
58581;SDS011;44361;51.476;5.700;2024-03-06T06:08:20;53.90;;;26.30;;
58581;SDS011;44361;51.476;5.700;2024-03-06T06:10:46;59.25;;;27.95;;
58581;SDS011;44361;51.476;5.700;2024-03-06T06:13:12;54.83;;;26.23;;
58581;SDS011;44361;51.476;5.700;2024-03-06T06:15:37;58.22;;;27.27;;
58581;SDS011;44361;51.476;5.700;2024-03-06T06:18:03;56.72;;;26.98;;
58581;SDS011;44361;51.476;5.700;2024-03-06T06:20:29;49.78;;;26.17;;
58581;SDS011;44361;51.476;5.700;2024-03-06T06:22:55;55.92;;;26.40;;
58581;SDS011;44361;51.476;5.700;2024-03-06T06:25:21;59.47;;;28.00;;
58581;SDS011;44361;51.476;5.700;2024-03-06T06:27:47;54.40;;;26.08;;
58581;SDS011;44361;51.476;5.700;2024-03-06T06:30:14;51.60;;;26.17;;
58581;SDS011;44361;51.476;5.700;2024-03-06T06:32:40;52.80;;;25.55;;
58581;SDS011;44361;51.476;5.700;2024-03-06T06:35:06;57.72;;;25.88;;
58581;SDS011;44361;51.476;5.700;2024-03-06T06:37:33;52.13;;;26.27;;
58581;SDS011;44361;51.476;5.700;2024-03-06T06:39:59;55.30;;;26.35;;
58581;SDS011;44361;51.476;5.700;2024-03-06T06:42:24;55.05;;;25.55;;
58581;SDS011;44361;51.476;5.700;2024-03-06T06:44:50;55.40;;;26.13;;
58581;SDS011;44361;51.476;5.700;2024-03-06T06:47:16;49.67;;;24.98;;
58581;SDS011;44361;51.476;5.700;2024-03-06T06:49:42;52.90;;;26.13;;
58581;SDS011;44361;51.476;5.700;2024-03-06T06:52:08;52.50;;;26.35;;
58581;SDS011;44361;51.476;5.700;2024-03-06T06:54:33;55.10;;;25.17;;
58581;SDS011;44361;51.476;5.700;2024-03-06T06:56:59;56.45;;;27.25;;
58581;SDS011;44361;51.476;5.700;2024-03-06T06:59:24;55.10;;;27.45;;
58581;SDS011;44361;51.476;5.700;2024-03-06T07:01:50;57.10;;;27.23;;
58581;SDS011;44361;51.476;5.700;2024-03-06T07:04:15;58.00;;;28.08;;
58581;SDS011;44361;51.476;5.700;2024-03-06T07:06:44;51.45;;;27.08;;
58581;SDS011;44361;51.476;5.700;2024-03-06T07:09:11;64.35;;;28.92;;
58581;SDS011;44361;51.476;5.700;2024-03-06T07:11:37;61.70;;;27.83;;
58581;SDS011;44361;51.476;5.700;2024-03-06T07:14:03;56.08;;;28.40;;
58581;SDS011;44361;51.476;5.700;2024-03-06T07:16:28;50.85;;;26.63;;
58581;SDS011;44361;51.476;5.700;2024-03-06T07:18:54;56.85;;;28.63;;
58581;SDS011;44361;51.476;5.700;2024-03-06T07:21:19;55.72;;;27.23;;
58581;SDS011;44361;51.476;5.700;2024-03-06T07:23:45;55.75;;;27.58;;
58581;SDS011;44361;51.476;5.700;2024-03-06T07:26:10;56.85;;;28.60;;
58581;SDS011;44361;51.476;5.700;2024-03-06T07:28:36;66.10;;;29.08;;
58581;SDS011;44361;51.476;5.700;2024-03-06T07:31:02;60.05;;;29.92;;
58581;SDS011;44361;51.476;5.700;2024-03-06T07:33:28;60.00;;;31.08;;
58581;SDS011;44361;51.476;5.700;2024-03-06T07:35:55;60.85;;;30.60;;
58581;SDS011;44361;51.476;5.700;2024-03-06T07:38:21;62.90;;;30.00;;
58581;SDS011;44361;51.476;5.700;2024-03-06T07:40:48;66.55;;;30.38;;
58581;SDS011;44361;51.476;5.700;2024-03-06T07:43:13;69.03;;;32.53;;
58581;SDS011;44361;51.476;5.700;2024-03-06T07:45:39;68.75;;;32.95;;
58581;SDS011;44361;51.476;5.700;2024-03-06T07:48:05;77.47;;;35.50;;
58581;SDS011;44361;51.476;5.700;2024-03-06T07:50:31;71.88;;;38.10;;
58581;SDS011;44361;51.476;5.700;2024-03-06T07:52:57;72.38;;;37.45;;
58581;SDS011;44361;51.476;5.700;2024-03-06T07:55:22;83.32;;;38.40;;
58581;SDS011;44361;51.476;5.700;2024-03-06T07:57:48;76.47;;;36.78;;
58581;SDS011;44361;51.476;5.700;2024-03-06T08:00:13;67.22;;;34.47;;
58581;SDS011;44361;51.476;5.700;2024-03-06T08:02:40;69.60;;;36.05;;
58581;SDS011;44361;51.476;5.700;2024-03-06T08:05:10;68.55;;;32.60;;
58581;SDS011;44361;51.476;5.700;2024-03-06T08:07:37;62.63;;;31.08;;
58581;SDS011;44361;51.476;5.700;2024-03-06T08:10:06;54.38;;;30.67;;
58581;SDS011;44361;51.476;5.700;2024-03-06T08:12:41;59.80;;;30.80;;
58581;SDS011;44361;51.476;5.700;2024-03-06T08:15:09;59.67;;;32.92;;
58581;SDS011;44361;51.476;5.700;2024-03-06T08:17:38;64.32;;;33.25;;
58581;SDS011;44361;51.476;5.700;2024-03-06T08:20:06;57.47;;;31.55;;
58581;SDS011;44361;51.476;5.700;2024-03-06T08:22:37;56.85;;;31.35;;
58581;SDS011;44361;51.476;5.700;2024-03-06T08:27:37;59.65;;;31.70;;
58581;SDS011;44361;51.476;5.700;2024-03-06T08:30:04;59.33;;;32.65;;
58581;SDS011;44361;51.476;5.700;2024-03-06T08:32:31;55.28;;;31.77;;
58581;SDS011;44361;51.476;5.700;2024-03-06T08:35:02;58.80;;;32.70;;
58581;SDS011;44361;51.476;5.700;2024-03-06T08:37:30;58.13;;;32.35;;
58581;SDS011;44361;51.476;5.700;2024-03-06T08:39:57;61.03;;;31.88;;
58581;SDS011;44361;51.476;5.700;2024-03-06T08:42:24;63.83;;;33.90;;
58581;SDS011;44361;51.476;5.700;2024-03-06T08:44:49;60.38;;;32.95;;
58581;SDS011;44361;51.476;5.700;2024-03-06T08:47:15;56.70;;;31.90;;
58581;SDS011;44361;51.476;5.700;2024-03-06T08:49:41;59.83;;;31.65;;
58581;SDS011;44361;51.476;5.700;2024-03-06T08:52:07;49.50;;;29.38;;
58581;SDS011;44361;51.476;5.700;2024-03-06T08:54:34;53.85;;;30.52;;
58581;SDS011;44361;51.476;5.700;2024-03-06T08:57:00;51.47;;;30.17;;
58581;SDS011;44361;51.476;5.700;2024-03-06T08:59:27;55.20;;;31.30;;
58581;SDS011;44361;51.476;5.700;2024-03-06T09:01:54;58.58;;;32.80;;
58581;SDS011;44361;51.476;5.700;2024-03-06T09:04:23;56.45;;;32.10;;
58581;SDS011;44361;51.476;5.700;2024-03-06T09:06:49;61.22;;;32.45;;
58581;SDS011;44361;51.476;5.700;2024-03-06T09:09:15;54.80;;;29.73;;
58581;SDS011;44361;51.476;5.700;2024-03-06T09:11:40;54.70;;;30.17;;
58581;SDS011;44361;51.476;5.700;2024-03-06T09:14:09;55.75;;;30.65;;
58581;SDS011;44361;51.476;5.700;2024-03-06T09:16:35;56.30;;;30.30;;
58581;SDS011;44361;51.476;5.700;2024-03-06T09:19:01;54.10;;;31.00;;
58581;SDS011;44361;51.476;5.700;2024-03-06T09:21:27;53.42;;;29.88;;
58581;SDS011;44361;51.476;5.700;2024-03-06T09:23:53;51.78;;;29.67;;
58581;SDS011;44361;51.476;5.700;2024-03-06T09:26:18;52.33;;;29.67;;
58581;SDS011;44361;51.476;5.700;2024-03-06T09:28:45;49.28;;;30.90;;
58581;SDS011;44361;51.476;5.700;2024-03-06T09:31:11;45.83;;;29.00;;
58581;SDS011;44361;51.476;5.700;2024-03-06T09:33:38;48.78;;;28.77;;
58581;SDS011;44361;51.476;5.700;2024-03-06T09:36:04;44.15;;;27.85;;
58581;SDS011;44361;51.476;5.700;2024-03-06T09:38:30;49.78;;;26.60;;
58581;SDS011;44361;51.476;5.700;2024-03-06T09:40:56;43.72;;;25.23;;
58581;SDS011;44361;51.476;5.700;2024-03-06T09:43:22;41.08;;;24.15;;
58581;SDS011;44361;51.476;5.700;2024-03-06T09:45:49;38.17;;;23.95;;
58581;SDS011;44361;51.476;5.700;2024-03-06T09:48:16;38.40;;;22.50;;
58581;SDS011;44361;51.476;5.700;2024-03-06T09:50:45;32.85;;;20.60;;
58581;SDS011;44361;51.476;5.700;2024-03-06T09:53:15;32.55;;;19.92;;
58581;SDS011;44361;51.476;5.700;2024-03-06T09:55:41;30.63;;;18.40;;
58581;SDS011;44361;51.476;5.700;2024-03-06T09:58:07;26.50;;;17.27;;
58581;SDS011;44361;51.476;5.700;2024-03-06T10:00:34;22.33;;;14.88;;
58581;SDS011;44361;51.476;5.700;2024-03-06T10:03:01;20.45;;;13.85;;
58581;SDS011;44361;51.476;5.700;2024-03-06T10:05:30;19.30;;;12.60;;
58581;SDS011;44361;51.476;5.700;2024-03-06T10:07:58;19.52;;;12.73;;
58581;SDS011;44361;51.476;5.700;2024-03-06T10:10:24;17.70;;;11.80;;
58581;SDS011;44361;51.476;5.700;2024-03-06T10:12:50;14.98;;;9.98;;
58581;SDS011;44361;51.476;5.700;2024-03-06T10:15:16;17.52;;;10.15;;
58581;SDS011;44361;51.476;5.700;2024-03-06T10:17:42;15.43;;;9.52;;
58581;SDS011;44361;51.476;5.700;2024-03-06T10:20:20;15.00;;;8.95;;
58581;SDS011;44361;51.476;5.700;2024-03-06T10:22:50;14.60;;;8.65;;
58581;SDS011;44361;51.476;5.700;2024-03-06T10:25:20;13.80;;;8.27;;
58581;SDS011;44361;51.476;5.700;2024-03-06T10:28:02;13.52;;;8.00;;
58581;SDS011;44361;51.476;5.700;2024-03-06T10:30:41;13.88;;;7.97;;
58581;SDS011;44361;51.476;5.700;2024-03-06T10:33:07;9.90;;;6.43;;
58581;SDS011;44361;51.476;5.700;2024-03-06T10:35:34;9.70;;;5.80;;
58581;SDS011;44361;51.476;5.700;2024-03-06T10:38:03;9.05;;;5.95;;
58581;SDS011;44361;51.476;5.700;2024-03-06T10:40:34;11.65;;;6.30;;
58581;SDS011;44361;51.476;5.700;2024-03-06T10:43:01;13.13;;;5.97;;
58581;SDS011;44361;51.476;5.700;2024-03-06T10:45:32;9.75;;;4.85;;
58581;SDS011;44361;51.476;5.700;2024-03-06T10:48:00;9.90;;;5.43;;
58581;SDS011;44361;51.476;5.700;2024-03-06T10:50:27;10.10;;;5.70;;
58581;SDS011;44361;51.476;5.700;2024-03-06T10:52:53;9.93;;;5.25;;
58581;SDS011;44361;51.476;5.700;2024-03-06T10:55:20;7.63;;;4.32;;
58581;SDS011;44361;51.476;5.700;2024-03-06T10:57:46;7.68;;;5.10;;
58581;SDS011;44361;51.476;5.700;2024-03-06T11:00:13;9.30;;;4.63;;
58581;SDS011;44361;51.476;5.700;2024-03-06T11:02:45;8.75;;;5.72;;
58581;SDS011;44361;51.476;5.700;2024-03-06T11:05:13;9.27;;;5.70;;
58581;SDS011;44361;51.476;5.700;2024-03-06T11:07:39;9.02;;;5.35;;
58581;SDS011;44361;51.476;5.700;2024-03-06T11:10:06;10.23;;;6.15;;
58581;SDS011;44361;51.476;5.700;2024-03-06T11:12:35;12.50;;;7.18;;
58581;SDS011;44361;51.476;5.700;2024-03-06T11:15:08;13.63;;;7.22;;
58581;SDS011;44361;51.476;5.700;2024-03-06T11:17:36;9.50;;;6.43;;
58581;SDS011;44361;51.476;5.700;2024-03-06T11:23:01;8.90;;;6.28;;
58581;SDS011;44361;51.476;5.700;2024-03-06T11:28:18;9.52;;;5.97;;
58581;SDS011;44361;51.476;5.700;2024-03-06T11:30:47;8.45;;;5.75;;
58581;SDS011;44361;51.476;5.700;2024-03-06T11:33:19;10.30;;;6.88;;
58581;SDS011;44361;51.476;5.700;2024-03-06T11:38:42;9.60;;;6.07;;
58581;SDS011;44361;51.476;5.700;2024-03-06T11:41:08;10.50;;;5.80;;
58581;SDS011;44361;51.476;5.700;2024-03-06T11:43:41;13.85;;;6.10;;
58581;SDS011;44361;51.476;5.700;2024-03-06T11:46:08;13.82;;;6.70;;
58581;SDS011;44361;51.476;5.700;2024-03-06T11:48:35;9.95;;;5.82;;
58581;SDS011;44361;51.476;5.700;2024-03-06T11:51:02;9.20;;;5.93;;
58581;SDS011;44361;51.476;5.700;2024-03-06T11:53:28;8.63;;;5.68;;
58581;SDS011;44361;51.476;5.700;2024-03-06T11:55:55;8.73;;;5.40;;
58581;SDS011;44361;51.476;5.700;2024-03-06T11:58:21;9.20;;;5.65;;
58581;SDS011;44361;51.476;5.700;2024-03-06T12:00:47;8.82;;;5.65;;
58581;SDS011;44361;51.476;5.700;2024-03-06T12:03:13;8.57;;;4.60;;
58581;SDS011;44361;51.476;5.700;2024-03-06T12:05:39;6.72;;;3.88;;
58581;SDS011;44361;51.476;5.700;2024-03-06T12:08:06;7.53;;;3.90;;
58581;SDS011;44361;51.476;5.700;2024-03-06T12:10:36;8.45;;;4.85;;
58581;SDS011;44361;51.476;5.700;2024-03-06T12:13:02;8.68;;;5.00;;
58581;SDS011;44361;51.476;5.700;2024-03-06T12:15:28;8.63;;;4.82;;
58581;SDS011;44361;51.476;5.700;2024-03-06T12:17:54;8.45;;;4.72;;
58581;SDS011;44361;51.476;5.700;2024-03-06T12:20:20;8.70;;;5.10;;
58581;SDS011;44361;51.476;5.700;2024-03-06T12:22:49;6.90;;;4.88;;
58581;SDS011;44361;51.476;5.700;2024-03-06T12:25:22;10.32;;;4.88;;
58581;SDS011;44361;51.476;5.700;2024-03-06T12:27:50;9.60;;;5.70;;
58581;SDS011;44361;51.476;5.700;2024-03-06T12:30:19;11.77;;;6.32;;
58581;SDS011;44361;51.476;5.700;2024-03-06T12:32:57;8.60;;;4.78;;
58581;SDS011;44361;51.476;5.700;2024-03-06T12:35:24;11.20;;;5.72;;
58581;SDS011;44361;51.476;5.700;2024-03-06T12:37:51;11.00;;;5.53;;
58581;SDS011;44361;51.476;5.700;2024-03-06T12:40:17;11.70;;;5.88;;
58581;SDS011;44361;51.476;5.700;2024-03-06T12:42:43;9.82;;;5.38;;
58581;SDS011;44361;51.476;5.700;2024-03-06T12:45:11;12.43;;;5.65;;
58581;SDS011;44361;51.476;5.700;2024-03-06T12:47:40;10.20;;;5.35;;
58581;SDS011;44361;51.476;5.700;2024-03-06T12:50:06;6.90;;;4.40;;
58581;SDS011;44361;51.476;5.700;2024-03-06T12:52:33;8.10;;;4.45;;
58581;SDS011;44361;51.476;5.700;2024-03-06T12:54:59;7.78;;;4.90;;
58581;SDS011;44361;51.476;5.700;2024-03-06T12:57:26;11.07;;;5.60;;
58581;SDS011;44361;51.476;5.700;2024-03-06T12:59:52;6.60;;;4.53;;
58581;SDS011;44361;51.476;5.700;2024-03-06T13:02:18;11.35;;;5.47;;
58581;SDS011;44361;51.476;5.700;2024-03-06T13:04:44;9.60;;;5.13;;
58581;SDS011;44361;51.476;5.700;2024-03-06T13:07:10;7.38;;;5.30;;
58581;SDS011;44361;51.476;5.700;2024-03-06T13:09:36;6.53;;;5.10;;
58581;SDS011;44361;51.476;5.700;2024-03-06T13:12:02;6.85;;;4.72;;
58581;SDS011;44361;51.476;5.700;2024-03-06T13:14:29;7.10;;;4.50;;
58581;SDS011;44361;51.476;5.700;2024-03-06T13:16:55;6.13;;;4.05;;
58581;SDS011;44361;51.476;5.700;2024-03-06T13:19:21;5.35;;;3.72;;
58581;SDS011;44361;51.476;5.700;2024-03-06T13:21:47;8.82;;;4.68;;
58581;SDS011;44361;51.476;5.700;2024-03-06T13:24:13;5.25;;;3.95;;
58581;SDS011;44361;51.476;5.700;2024-03-06T13:26:39;7.25;;;4.18;;
58581;SDS011;44361;51.476;5.700;2024-03-06T13:29:05;8.38;;;4.47;;
58581;SDS011;44361;51.476;5.700;2024-03-06T13:31:31;9.30;;;4.97;;
58581;SDS011;44361;51.476;5.700;2024-03-06T13:33:59;6.00;;;3.85;;
58581;SDS011;44361;51.476;5.700;2024-03-06T13:36:25;6.80;;;3.90;;
58581;SDS011;44361;51.476;5.700;2024-03-06T13:38:51;4.65;;;4.00;;
58581;SDS011;44361;51.476;5.700;2024-03-06T13:41:17;7.72;;;3.85;;
58581;SDS011;44361;51.476;5.700;2024-03-06T13:43:43;6.53;;;3.58;;
58581;SDS011;44361;51.476;5.700;2024-03-06T13:46:08;7.35;;;3.65;;
58581;SDS011;44361;51.476;5.700;2024-03-06T13:48:34;7.20;;;3.58;;
58581;SDS011;44361;51.476;5.700;2024-03-06T13:51:01;6.80;;;3.58;;
58581;SDS011;44361;51.476;5.700;2024-03-06T13:53:26;5.30;;;3.15;;
58581;SDS011;44361;51.476;5.700;2024-03-06T13:55:52;7.30;;;3.90;;
58581;SDS011;44361;51.476;5.700;2024-03-06T13:58:18;5.65;;;3.88;;
58581;SDS011;44361;51.476;5.700;2024-03-06T14:00:43;4.97;;;3.13;;
58581;SDS011;44361;51.476;5.700;2024-03-06T14:03:09;6.57;;;3.78;;
58581;SDS011;44361;51.476;5.700;2024-03-06T14:05:37;8.25;;;4.25;;
58581;SDS011;44361;51.476;5.700;2024-03-06T14:08:04;9.05;;;3.72;;
58581;SDS011;44361;51.476;5.700;2024-03-06T14:10:30;6.43;;;4.30;;
58581;SDS011;44361;51.476;5.700;2024-03-06T14:12:59;6.85;;;4.03;;
58581;SDS011;44361;51.476;5.700;2024-03-06T14:15:25;6.38;;;4.35;;
58581;SDS011;44361;51.476;5.700;2024-03-06T14:17:52;8.23;;;4.72;;
58581;SDS011;44361;51.476;5.700;2024-03-06T14:20:20;6.15;;;4.30;;
58581;SDS011;44361;51.476;5.700;2024-03-06T14:22:47;6.15;;;4.85;;
58581;SDS011;44361;51.476;5.700;2024-03-06T14:25:12;8.48;;;5.00;;
58581;SDS011;44361;51.476;5.700;2024-03-06T14:27:39;8.43;;;4.82;;
58581;SDS011;44361;51.476;5.700;2024-03-06T14:30:11;7.68;;;5.47;;
58581;SDS011;44361;51.476;5.700;2024-03-06T14:32:40;10.40;;;6.18;;
58581;SDS011;44361;51.476;5.700;2024-03-06T14:35:06;8.15;;;5.80;;